Scorpio — WDH7833 — position and weather

sailwx.info

Track history (hours):
 
Tides and Currents Weather Stations Pressure Air Temp Water Temp Dewpoint Dewpoint Depression Visibility Wind Speed Wind Dir Waves Ship Positions

Scorpio

Owner: Bruno, Thomas R, Wayside, NJ. More information available from US FCC via Universal Licensing System and Coast Guard Vessel Documentation Center.

Last reported at 2017-Nov-15 20:46 UTC. Time now 2017-Dec-17 10:08 UTC.
Position N 32°47' W 079°57'.
Warning: this ship's position is 31 days out of date.

Type: Pleasure craft. MMSI: 367652050.

Date/timePositionNaut miles runAvg speedWind from/ knotsBaromVisibWave heightAir tempDewpointWater temp
2017-Nov-15 20:46N 32°47' W 079°57'0 0.0
2017-Nov-15 20:25N 32°47' W 079°57'0 0.8
2017-Nov-15 20:00N 32°46' W 079°57'815.0
2017-Nov-15 19:30N 32°43' W 079°49'190 6.6
2017-Nov-14 14:44N 34°39' W 076°47'417.5
2017-Nov-14 14:30N 34°40' W 076°43'4 7.2
2017-Nov-14 14:00N 34°43' W 076°42'0 0.0
2017-Nov-14 13:30N 34°43' W 076°42'0 0.0
2017-Nov-14 13:00N 34°43' W 076°42'0 0.0
2017-Nov-14 12:30N 34°43' W 076°42'0 0.0
2017-Nov-14 12:00N 34°43' W 076°42'0 0.0
2017-Nov-14 11:30N 34°43' W 076°42'0 0.0
2017-Nov-14 11:00N 34°43' W 076°42'0 0.0
2017-Nov-14 10:30N 34°43' W 076°42'0 0.0
2017-Nov-14 10:00N 34°43' W 076°42'0 0.0
2017-Nov-14 09:30N 34°43' W 076°42'0 0.0
2017-Nov-14 09:00N 34°43' W 076°42'0 0.0
2017-Nov-14 08:30N 34°43' W 076°42'0 0.0
2017-Nov-14 08:00N 34°43' W 076°42'0 0.0
2017-Nov-14 07:27N 34°43' W 076°42'0 0.0
2017-Nov-14 07:00N 34°43' W 076°42'0 0.0
2017-Nov-14 06:30N 34°43' W 076°42'0 0.0
2017-Nov-14 06:00N 34°43' W 076°42'0 0.0
2017-Nov-14 05:30N 34°43' W 076°42'0 0.0
2017-Nov-14 05:00N 34°43' W 076°42'0 0.0
2017-Nov-14 04:30N 34°43' W 076°42'0 0.0
2017-Nov-14 04:00N 34°43' W 076°42'0 0.0
2017-Nov-14 03:30N 34°43' W 076°42'0 0.0
2017-Nov-14 03:00N 34°43' W 076°42'0 0.0
2017-Nov-14 02:30N 34°43' W 076°42'0 0.0
2017-Nov-14 02:00N 34°43' W 076°42'0 0.0
2017-Nov-14 01:30N 34°43' W 076°42'0 0.0
2017-Nov-14 01:00N 34°43' W 076°42'0 0.0
2017-Nov-14 00:30N 34°43' W 076°42'0 0.0
2017-Nov-14 00:00N 34°43' W 076°42'0 0.0
2017-Nov-13 23:30N 34°43' W 076°42'0 0.0
2017-Nov-13 23:00N 34°43' W 076°42'0 0.0
2017-Nov-13 22:30N 34°43' W 076°42'0 0.0
2017-Nov-13 22:00N 34°43' W 076°42'5 0.3
2017-Nov-13 02:00N 34°48' W 076°41'0 0.0
2017-Nov-13 01:27N 34°48' W 076°41'0 0.0
2017-Nov-13 01:00N 34°48' W 076°41'0 0.0
2017-Nov-13 00:30N 34°48' W 076°41'0 0.0
2017-Nov-13 00:00N 34°48' W 076°41'0 0.0
2017-Nov-12 23:30N 34°48' W 076°41'117 3.7
2017-Nov-11 16:14N 36°44' W 076°15'2 4.8
2017-Nov-11 15:45N 36°45' W 076°18'2 6.6
2017-Nov-11 15:30N 36°46' W 076°18'2 4.7
2017-Nov-11 15:00N 36°49' W 076°17'2 3.1
2017-Nov-11 14:24N 36°51' W 076°17'0 0.0
2017-Nov-11 13:54N 36°51' W 076°17'0 0.0
2017-Nov-11 13:30N 36°51' W 076°17'0 0.0
2017-Nov-11 12:48N 36°51' W 076°17'0 0.0
2017-Nov-11 12:12N 36°51' W 076°17'0 0.0
2017-Nov-11 12:00N 36°51' W 076°17'0 0.0
2017-Nov-11 11:30N 36°51' W 076°17'0 0.0
2017-Nov-11 10:30N 36°51' W 076°17'0 0.0
2017-Nov-11 09:48N 36°51' W 076°17'0 0.0
2017-Nov-11 09:30N 36°51' W 076°17'0 0.0
2017-Nov-11 09:00N 36°51' W 076°17'0 0.0
2017-Nov-11 08:30N 36°51' W 076°17'0 0.0
2017-Nov-11 08:00N 36°51' W 076°17'0 0.0
2017-Nov-11 07:24N 36°51' W 076°17'0 0.0
2017-Nov-11 06:54N 36°51' W 076°17'0 0.0
2017-Nov-11 06:24N 36°51' W 076°17'0 0.0
2017-Nov-11 05:48N 36°51' W 076°17'0 0.0
2017-Nov-11 05:30N 36°51' W 076°17'0 0.0
2017-Nov-11 05:00N 36°51' W 076°17'0 0.0
2017-Nov-11 04:18N 36°51' W 076°17'0 0.0
2017-Nov-11 03:48N 36°51' W 076°17'0 0.0
2017-Nov-11 01:30N 36°51' W 076°17'0 0.0
2017-Nov-11 00:24N 36°51' W 076°17'0 0.0
2017-Nov-10 23:30N 36°51' W 076°17'0 0.0
2017-Nov-10 23:00N 36°51' W 076°17'0 0.0
2017-Nov-10 22:00N 36°51' W 076°17'0 0.0
2017-Nov-10 17:42N 36°51' W 076°17'0 0.0
2017-Nov-10 17:30N 36°51' W 076°17'0 0.0
2017-Nov-10 16:57N 36°51' W 076°17'4 9.0
2017-Nov-10 16:30N 36°54' W 076°20'612.1
2017-Nov-10 16:00N 36°60' W 076°19'1 2.8
2017-Nov-10 15:30N 37°01' W 076°20'0 0.0
2017-Nov-10 15:00N 37°01' W 076°20'0 0.0
2017-Nov-10 14:30N 37°01' W 076°20'0 0.0
2017-Nov-10 14:00N 37°01' W 076°20'0 0.0
2017-Nov-10 13:30N 37°01' W 076°20'0 0.0
2017-Nov-10 13:00N 37°01' W 076°20'0 0.0
2017-Nov-10 12:30N 37°01' W 076°20'0 0.0
2017-Nov-10 12:00N 37°01' W 076°20'0 0.0
2017-Nov-10 11:30N 37°01' W 076°20'0 0.0
2017-Nov-10 11:00N 37°01' W 076°20'0 0.0
2017-Nov-10 10:24N 37°01' W 076°20'0 0.0
2017-Nov-10 10:00N 37°01' W 076°20'0 0.0
2017-Nov-10 09:30N 37°01' W 076°20'0 0.0
2017-Nov-10 09:00N 37°01' W 076°20'0 0.0
2017-Nov-10 08:30N 37°01' W 076°20'0 0.0
2017-Nov-10 08:00N 37°01' W 076°20'0 0.0
2017-Nov-10 07:30N 37°01' W 076°20'0 0.0
2017-Nov-10 07:00N 37°01' W 076°20'0 0.0
2017-Nov-10 06:30N 37°01' W 076°20'0 0.0
2017-Nov-10 06:00N 37°01' W 076°20'0 0.0
2017-Nov-10 05:30N 37°01' W 076°20'0 0.0
2017-Nov-10 05:00N 37°01' W 076°20'0 0.0
2017-Nov-10 04:18N 37°01' W 076°20'0 0.0
2017-Nov-10 04:00N 37°01' W 076°20'0 0.0
2017-Nov-10 03:30N 37°01' W 076°20'0 0.0
2017-Nov-10 03:00N 37°01' W 076°20'0 0.0
2017-Nov-10 02:30N 37°01' W 076°20'0 0.0
2017-Nov-10 02:00N 37°01' W 076°20'0 0.0
2017-Nov-10 01:30N 37°01' W 076°20'0 0.0
2017-Nov-10 01:00N 37°01' W 076°20'0 0.0
2017-Nov-10 00:30N 37°01' W 076°20'0 0.0
2017-Nov-10 00:00N 37°01' W 076°20'0 0.0
2017-Nov-09 23:30N 37°01' W 076°20'187 6.5
2017-Nov-08 18:37N 39°37' W 074°10'217.5
2017-Nov-08 18:29N 39°39' W 074°08'  
Track history (hours):
 
Tides and Currents Weather Stations Pressure Air Temp Water Temp Dewpoint Dewpoint Depression Visibility Wind Speed Wind Dir Waves Ship Positions

Scorpio

Owner: Bruno, Thomas R, Wayside, NJ. More information available from US FCC via Universal Licensing System and Coast Guard Vessel Documentation Center.

Last reported at 2017-Nov-15 20:46 UTC. Time now 2017-Dec-17 10:08 UTC.
Position N 32°47' W 079°57'.
Warning: this ship's position is 31 days out of date.

Type: Pleasure craft. MMSI: 367652050.

Date/timePositionNaut miles runAvg speedWind from/ knotsBaromVisibWave heightAir tempDewpointWater temp
2017-Nov-15 20:46N 32°47' W 079°57'0 0.0
2017-Nov-15 20:25N 32°47' W 079°57'0 0.8
2017-Nov-15 20:00N 32°46' W 079°57'815.0
2017-Nov-15 19:30N 32°43' W 079°49'190 6.6
2017-Nov-14 14:44N 34°39' W 076°47'417.5
2017-Nov-14 14:30N 34°40' W 076°43'4 7.2
2017-Nov-14 14:00N 34°43' W 076°42'0 0.0
2017-Nov-14 13:30N 34°43' W 076°42'0 0.0
2017-Nov-14 13:00N 34°43' W 076°42'0 0.0
2017-Nov-14 12:30N 34°43' W 076°42'0 0.0
2017-Nov-14 12:00N 34°43' W 076°42'0 0.0
2017-Nov-14 11:30N 34°43' W 076°42'0 0.0
2017-Nov-14 11:00N 34°43' W 076°42'0 0.0
2017-Nov-14 10:30N 34°43' W 076°42'0 0.0
2017-Nov-14 10:00N 34°43' W 076°42'0 0.0
2017-Nov-14 09:30N 34°43' W 076°42'0 0.0
2017-Nov-14 09:00N 34°43' W 076°42'0 0.0
2017-Nov-14 08:30N 34°43' W 076°42'0 0.0
2017-Nov-14 08:00N 34°43' W 076°42'0 0.0
2017-Nov-14 07:27N 34°43' W 076°42'0 0.0
2017-Nov-14 07:00N 34°43' W 076°42'0 0.0
2017-Nov-14 06:30N 34°43' W 076°42'0 0.0
2017-Nov-14 06:00N 34°43' W 076°42'0 0.0
2017-Nov-14 05:30N 34°43' W 076°42'0 0.0
2017-Nov-14 05:00N 34°43' W 076°42'0 0.0
2017-Nov-14 04:30N 34°43' W 076°42'0 0.0
2017-Nov-14 04:00N 34°43' W 076°42'0 0.0
2017-Nov-14 03:30N 34°43' W 076°42'0 0.0
2017-Nov-14 03:00N 34°43' W 076°42'0 0.0
2017-Nov-14 02:30N 34°43' W 076°42'0 0.0
2017-Nov-14 02:00N 34°43' W 076°42'0 0.0
2017-Nov-14 01:30N 34°43' W 076°42'0 0.0
2017-Nov-14 01:00N 34°43' W 076°42'0 0.0
2017-Nov-14 00:30N 34°43' W 076°42'0 0.0
2017-Nov-14 00:00N 34°43' W 076°42'0 0.0
2017-Nov-13 23:30N 34°43' W 076°42'0 0.0
2017-Nov-13 23:00N 34°43' W 076°42'0 0.0
2017-Nov-13 22:30N 34°43' W 076°42'0 0.0
2017-Nov-13 22:00N 34°43' W 076°42'5 0.3
2017-Nov-13 02:00N 34°48' W 076°41'0 0.0
2017-Nov-13 01:27N 34°48' W 076°41'0 0.0
2017-Nov-13 01:00N 34°48' W 076°41'0 0.0
2017-Nov-13 00:30N 34°48' W 076°41'0 0.0
2017-Nov-13 00:00N 34°48' W 076°41'0 0.0
2017-Nov-12 23:30N 34°48' W 076°41'117 3.7
2017-Nov-11 16:14N 36°44' W 076°15'2 4.8
2017-Nov-11 15:45N 36°45' W 076°18'2 6.6
2017-Nov-11 15:30N 36°46' W 076°18'2 4.7
2017-Nov-11 15:00N 36°49' W 076°17'2 3.1
2017-Nov-11 14:24N 36°51' W 076°17'0 0.0
2017-Nov-11 13:54N 36°51' W 076°17'0 0.0
2017-Nov-11 13:30N 36°51' W 076°17'0 0.0
2017-Nov-11 12:48N 36°51' W 076°17'0 0.0
2017-Nov-11 12:12N 36°51' W 076°17'0 0.0
2017-Nov-11 12:00N 36°51' W 076°17'0 0.0
2017-Nov-11 11:30N 36°51' W 076°17'0 0.0
2017-Nov-11 10:30N 36°51' W 076°17'0 0.0
2017-Nov-11 09:48N 36°51' W 076°17'0 0.0
2017-Nov-11 09:30N 36°51' W 076°17'0 0.0
2017-Nov-11 09:00N 36°51' W 076°17'0 0.0
2017-Nov-11 08:30N 36°51' W 076°17'0 0.0
2017-Nov-11 08:00N 36°51' W 076°17'0 0.0
2017-Nov-11 07:24N 36°51' W 076°17'0 0.0
2017-Nov-11 06:54N 36°51' W 076°17'0 0.0
2017-Nov-11 06:24N 36°51' W 076°17'0 0.0
2017-Nov-11 05:48N 36°51' W 076°17'0 0.0
2017-Nov-11 05:30N 36°51' W 076°17'0 0.0
2017-Nov-11 05:00N 36°51' W 076°17'0 0.0
2017-Nov-11 04:18N 36°51' W 076°17'0 0.0
2017-Nov-11 03:48N 36°51' W 076°17'0 0.0
2017-Nov-11 01:30N 36°51' W 076°17'0 0.0
2017-Nov-11 00:24N 36°51' W 076°17'0 0.0
2017-Nov-10 23:30N 36°51' W 076°17'0 0.0
2017-Nov-10 23:00N 36°51' W 076°17'0 0.0
2017-Nov-10 22:00N 36°51' W 076°17'0 0.0
2017-Nov-10 17:42N 36°51' W 076°17'0 0.0
2017-Nov-10 17:30N 36°51' W 076°17'0 0.0
2017-Nov-10 16:57N 36°51' W 076°17'4 9.0
2017-Nov-10 16:30N 36°54' W 076°20'612.1
2017-Nov-10 16:00N 36°60' W 076°19'1 2.8
2017-Nov-10 15:30N 37°01' W 076°20'0 0.0
2017-Nov-10 15:00N 37°01' W 076°20'0 0.0
2017-Nov-10 14:30N 37°01' W 076°20'0 0.0
2017-Nov-10 14:00N 37°01' W 076°20'0 0.0
2017-Nov-10 13:30N 37°01' W 076°20'0 0.0
2017-Nov-10 13:00N 37°01' W 076°20'0 0.0
2017-Nov-10 12:30N 37°01' W 076°20'0 0.0
2017-Nov-10 12:00N 37°01' W 076°20'0 0.0
2017-Nov-10 11:30N 37°01' W 076°20'0 0.0
2017-Nov-10 11:00N 37°01' W 076°20'0 0.0
2017-Nov-10 10:24N 37°01' W 076°20'0 0.0
2017-Nov-10 10:00N 37°01' W 076°20'0 0.0
2017-Nov-10 09:30N 37°01' W 076°20'0 0.0
2017-Nov-10 09:00N 37°01' W 076°20'0 0.0
2017-Nov-10 08:30N 37°01' W 076°20'0 0.0
2017-Nov-10 08:00N 37°01' W 076°20'0 0.0
2017-Nov-10 07:30N 37°01' W 076°20'0 0.0
2017-Nov-10 07:00N 37°01' W 076°20'0 0.0
2017-Nov-10 06:30N 37°01' W 076°20'0 0.0
2017-Nov-10 06:00N 37°01' W 076°20'0 0.0
2017-Nov-10 05:30N 37°01' W 076°20'0 0.0
2017-Nov-10 05:00N 37°01' W 076°20'0 0.0
2017-Nov-10 04:18N 37°01' W 076°20'0 0.0
2017-Nov-10 04:00N 37°01' W 076°20'0 0.0
2017-Nov-10 03:30N 37°01' W 076°20'0 0.0
2017-Nov-10 03:00N 37°01' W 076°20'0 0.0
2017-Nov-10 02:30N 37°01' W 076°20'0 0.0
2017-Nov-10 02:00N 37°01' W 076°20'0 0.0
2017-Nov-10 01:30N 37°01' W 076°20'0 0.0
2017-Nov-10 01:00N 37°01' W 076°20'0 0.0
2017-Nov-10 00:30N 37°01' W 076°20'0 0.0
2017-Nov-10 00:00N 37°01' W 076°20'0 0.0
2017-Nov-09 23:30N 37°01' W 076°20'187 6.5
2017-Nov-08 18:37N 39°37' W 074°10'217.5
2017-Nov-08 18:29N 39°39' W 074°08'  

Dump ship's entire track history